Time;durP1;ratioP1;P1;durP2;ratioP2;P2;SDS_P1;SDS_P2;PMS_P1;PMS_P2;Temp;Humidity;BMP_temperature;BMP_pressure;BME280_temperature;BME280_humidity;BME280_pressure;Samples;Min_cycle;Max_cycle;Signal;HPM_P1;HPM_P2
2023/09/21 00:00:27;;;;;;;10.10;9.90;;;17.20;99.90;;;;;;5089969;28;20921;-68
2023/09/21 00:02:55;;;;;;;9.97;9.77;;;17.20;99.90;;;;;;5078598;28;20549;-66
2023/09/21 00:05:24;;;;;;;10.00;9.80;;;17.20;99.90;;;;;;5070585;28;20542;-67
2023/09/21 00:07:52;;;;;;;10.00;9.80;;;17.20;99.90;;;;;;5090704;28;20456;-67
2023/09/21 00:10:19;;;;;;;9.77;9.57;;;17.20;99.90;;;;;;5075569;28;20882;-67
2023/09/21 00:12:46;;;;;;;10.50;10.30;;;17.20;99.90;;;;;;5080145;28;20462;-67
2023/09/21 00:15:21;;;;;;;10.17;9.97;;;17.30;99.90;;;;;;5077196;28;20454;-67
2023/09/21 00:17:53;;;;;;;10.20;10.00;;;17.20;99.90;;;;;;5090744;28;20464;-67
2023/09/21 00:20:23;;;;;;;10.00;9.80;;;17.30;99.90;;;;;;5085087;28;20454;-67
2023/09/21 00:22:51;;;;;;;10.47;10.27;;;17.30;99.90;;;;;;5085275;28;20502;-68
2023/09/21 00:25:19;;;;;;;10.20;10.00;;;17.30;99.90;;;;;;5078622;28;20472;-67
2023/09/21 00:27:46;;;;;;;11.60;11.30;;;17.30;99.90;;;;;;5090684;28;20450;-67
2023/09/21 00:30:14;;;;;;;9.97;9.77;;;17.30;99.90;;;;;;5082433;28;20518;-67
2023/09/21 00:32:42;;;;;;;10.00;9.80;;;17.30;99.90;;;;;;5075376;28;20491;-67
2023/09/21 00:35:12;;;;;;;9.80;9.60;;;17.30;99.90;;;;;;5089592;28;20457;-68
2023/09/21 00:37:39;;;;;;;10.60;10.40;;;17.30;99.90;;;;;;5074625;28;20462;-67
2023/09/21 00:40:25;;;;;;;9.80;9.60;;;17.30;99.90;;;;;;5088285;28;20837;-66
2023/09/21 00:42:52;;;;;;;9.80;9.60;;;17.30;99.90;;;;;;5071426;28;20879;-67
2023/09/21 00:45:21;;;;;;;9.80;9.60;;;17.30;99.90;;;;;;5089820;28;20457;-68
2023/09/21 00:47:50;;;;;;;10.07;9.87;;;17.30;99.90;;;;;;5085251;28;20462;-66
2023/09/21 00:50:21;;;;;;;9.83;9.63;;;17.30;99.90;;;;;;5081532;28;20468;-66
2023/09/21 00:52:52;;;;;;;10.40;10.20;;;17.30;99.90;;;;;;5090328;28;20564;-68
2023/09/21 00:55:23;;;;;;;10.37;10.17;;;17.20;99.90;;;;;;5082058;28;20919;-67
2023/09/21 00:57:53;;;;;;;11.53;11.23;;;17.30;99.90;;;;;;5079914;28;20511;-67
2023/09/21 01:00:25;;;;;;;10.20;10.00;;;17.30;99.90;;;;;;5086191;28;20450;-67
2023/09/21 01:02:54;;;;;;;9.93;9.73;;;17.30;99.90;;;;;;5084594;28;20939;-65
2023/09/21 01:05:23;;;;;;;9.90;9.70;;;17.30;99.90;;;;;;5089492;28;20458;-67
2023/09/21 01:07:50;;;;;;;9.93;9.73;;;17.30;99.90;;;;;;5079372;28;20463;-67
2023/09/21 01:10:21;;;;;;;10.13;9.93;;;17.30;99.90;;;;;;5074750;28;20466;-67
2023/09/21 01:12:50;;;;;;;9.80;9.60;;;17.30;99.90;;;;;;5079446;28;20450;-66
2023/09/21 01:15:20;;;;;;;10.13;9.93;;;17.30;99.90;;;;;;5080690;28;20462;-67
2023/09/21 01:17:48;;;;;;;10.40;10.20;;;17.30;99.90;;;;;;5079124;28;20450;-67
2023/09/21 01:20:22;;;;;;;10.03;9.83;;;17.30;99.90;;;;;;5078084;28;20466;-67
2023/09/21 01:22:58;;;;;;;9.77;9.57;;;17.30;99.90;;;;;;5081702;28;20945;-67
2023/09/21 01:25:27;;;;;;;9.70;9.50;;;17.30;99.90;;;;;;5088738;28;20454;-67
2023/09/21 01:27:54;;;;;;;10.00;9.80;;;17.30;99.90;;;;;;5084889;28;20486;-67
2023/09/21 01:30:21;;;;;;;9.93;9.73;;;17.40;99.90;;;;;;5076401;28;20826;-67
2023/09/21 01:32:48;;;;;;;9.80;9.60;;;17.40;99.90;;;;;;5088560;28;20478;-67
2023/09/21 01:35:17;;;;;;;10.63;10.43;;;17.30;99.90;;;;;;5082639;28;20509;-66
2023/09/21 01:37:45;;;;;;;10.07;9.87;;;17.20;99.90;;;;;;5075126;28;21183;-67
2023/09/21 01:40:16;;;;;;;10.10;9.90;;;17.20;99.90;;;;;;5080279;28;20517;-67
2023/09/21 01:42:48;;;;;;;10.40;10.20;;;17.20;99.90;;;;;;5077210;28;20477;-68
2023/09/21 01:45:16;;;;;;;10.23;10.03;;;17.20;99.90;;;;;;5088839;28;20476;-66
2023/09/21 01:47:43;;;;;;;10.00;9.80;;;17.20;99.90;;;;;;5083800;28;20557;-67
2023/09/21 01:50:12;;;;;;;10.10;9.90;;;17.20;99.90;;;;;;5085249;28;20450;-68
2023/09/21 01:52:39;;;;;;;10.70;10.50;;;17.20;99.90;;;;;;5072210;28;20474;-67
2023/09/21 01:55:10;;;;;;;9.93;9.73;;;17.20;99.90;;;;;;5073586;28;20454;-68
2023/09/21 01:57:38;;;;;;;9.93;9.73;;;17.20;99.90;;;;;;5070212;28;20584;-66
2023/09/21 02:00:21;;;;;;;9.90;9.70;;;17.20;99.90;;;;;;5083894;28;20458;-68
2023/09/21 02:02:49;;;;;;;10.23;10.03;;;17.20;99.90;;;;;;5082277;28;20452;-67
2023/09/21 02:05:17;;;;;;;10.30;10.10;;;17.20;99.90;;;;;;5077443;28;20620;-67
2023/09/21 02:07:44;;;;;;;9.90;9.70;;;17.10;99.90;;;;;;5083347;28;20454;-67
2023/09/21 02:10:11;;;;;;;10.10;9.90;;;17.20;99.90;;;;;;5083093;28;20468;-67
2023/09/21 02:12:39;;;;;;;10.00;9.80;;;17.10;99.90;;;;;;5077397;28;20467;-67
2023/09/21 02:15:11;;;;;;;11.23;10.93;;;17.10;99.90;;;;;;5084318;28;20545;-66
2023/09/21 02:17:40;;;;;;;10.43;10.23;;;17.10;99.90;;;;;;5088232;28;20589;-67
2023/09/21 02:20:13;;;;;;;9.90;9.70;;;17.10;99.90;;;;;;5081880;28;20599;-67
2023/09/21 02:22:42;;;;;;;10.30;10.10;;;17.10;99.90;;;;;;5079178;28;20984;-67
2023/09/21 02:25:11;;;;;;;10.20;10.00;;;17.10;99.90;;;;;;5075302;28;20487;-66
2023/09/21 02:27:39;;;;;;;9.70;9.50;;;17.20;99.90;;;;;;5088316;28;20540;-68
2023/09/21 02:30:12;;;;;;;10.40;10.20;;;17.20;99.90;;;;;;5079193;28;20458;-68
2023/09/21 02:32:40;;;;;;;10.20;10.00;;;17.20;99.90;;;;;;5080422;28;20474;-66
2023/09/21 02:35:08;;;;;;;11.03;10.83;;;17.10;99.90;;;;;;5086373;28;20936;-67
2023/09/21 02:37:35;;;;;;;10.00;9.80;;;17.10;99.90;;;;;;5077177;28;20495;-67
2023/09/21 02:40:07;;;;;;;10.43;10.23;;;17.20;99.90;;;;;;5074382;28;21228;-67
2023/09/21 02:42:34;;;;;;;9.70;9.50;;;17.20;99.90;;;;;;5080654;28;20462;-66
2023/09/21 02:45:04;;;;;;;10.40;10.20;;;17.20;99.90;;;;;;5074425;28;20470;-67
2023/09/21 02:47:34;;;;;;;10.23;10.03;;;17.20;99.90;;;;;;5073238;28;20463;-67
2023/09/21 02:50:09;;;;;;;10.00;9.80;;;17.10;99.90;;;;;;5086091;28;20450;-68
2023/09/21 02:52:36;;;;;;;10.00;9.80;;;17.10;99.90;;;;;;5075214;28;20466;-67
2023/09/21 02:55:04;;;;;;;11.63;11.33;;;17.10;99.90;;;;;;5075243;28;20842;-66
2023/09/21 02:57:31;;;;;;;11.23;10.93;;;17.10;99.90;;;;;;5087857;28;20992;-67
2023/09/21 03:00:08;;;;;;;11.50;11.20;;;17.10;99.90;;;;;;5083113;28;20630;-67
2023/09/21 03:02:37;;;;;;;10.57;10.37;;;17.10;99.90;;;;;;5084469;28;20901;-68
2023/09/21 03:05:10;;;;;;;11.17;10.90;;;17.10;99.90;;;;;;5088013;28;20967;-67
2023/09/21 03:07:43;;;;;;;11.30;11.00;;;17.10;99.90;;;;;;5075877;28;20821;-67
2023/09/21 03:10:11;;;;;;;11.37;11.07;;;17.10;99.90;;;;;;5066564;28;20816;-67
2023/09/21 03:12:38;;;;;;;11.67;11.37;;;17.10;99.90;;;;;;5080538;28;20512;-67
2023/09/21 03:15:08;;;;;;;10.97;10.77;;;17.20;99.90;;;;;;5088003;28;20533;-67
2023/09/21 03:17:38;;;;;;;11.43;11.13;;;17.20;99.90;;;;;;5079759;28;20507;-67
2023/09/21 03:20:25;;;;;;;11.57;11.27;;;17.20;99.90;;;;;;5086499;28;20458;-68
2023/09/21 03:22:53;;;;;;;10.83;10.63;;;17.20;99.90;;;;;;5081677;28;20462;-68
2023/09/21 03:25:25;;;;;;;10.80;10.60;;;17.20;99.90;;;;;;5078017;28;20866;-68
2023/09/21 03:27:53;;;;;;;11.10;10.83;;;17.20;99.90;;;;;;5081563;28;20449;-66
2023/09/21 03:30:21;;;;;;;11.33;11.03;;;17.20;99.90;;;;;;5077162;28;20461;-66
2023/09/21 03:32:49;;;;;;;10.77;10.57;;;17.20;99.90;;;;;;5072476;28;20851;-67
2023/09/21 03:35:16;;;;;;;10.80;10.60;;;17.20;99.90;;;;;;5087887;28;20745;-68
2023/09/21 03:37:45;;;;;;;10.70;10.50;;;17.20;99.90;;;;;;5078162;28;21259;-66
2023/09/21 03:40:14;;;;;;;10.40;10.20;;;17.20;99.90;;;;;;5077488;28;20485;-67
2023/09/21 03:42:42;;;;;;;11.10;10.90;;;17.20;99.90;;;;;;5082129;28;21011;-67
2023/09/21 03:45:11;;;;;;;10.10;9.90;;;17.20;99.90;;;;;;5088380;28;20940;-68
2023/09/21 03:47:40;;;;;;;10.50;10.30;;;17.20;99.90;;;;;;5085379;28;20458;-68
2023/09/21 03:50:12;;;;;;;10.30;10.10;;;17.20;99.90;;;;;;5082426;28;20894;-67
2023/09/21 03:52:39;;;;;;;10.63;10.43;;;17.20;99.90;;;;;;5078444;28;20462;-66
2023/09/21 03:55:10;;;;;;;10.73;10.53;;;17.20;99.90;;;;;;5073380;28;20461;-67
2023/09/21 03:57:38;;;;;;;11.30;11.00;;;17.20;99.90;;;;;;5071839;28;20582;-67
2023/09/21 04:00:17;;;;;;;11.07;10.77;;;17.30;99.90;;;;;;5089998;28;20462;-67
2023/09/21 04:02:45;;;;;;;11.20;10.90;;;17.20;99.90;;;;;;5079181;28;20531;-68
2023/09/21 04:05:20;;;;;;;11.37;11.07;;;17.20;99.90;;;;;;5085519;28;20719;-67
2023/09/21 04:07:49;;;;;;;10.80;10.60;;;17.30;99.90;;;;;;5086564;28;20559;-67
2023/09/21 04:10:16;;;;;;;11.20;10.90;;;17.30;99.90;;;;;;5073020;28;20459;-68
2023/09/21 04:12:44;;;;;;;11.07;10.77;;;17.20;99.90;;;;;;5085650;28;20471;-67
2023/09/21 04:15:12;;;;;;;11.10;10.80;;;17.20;99.90;;;;;;5087652;28;20803;-68
2023/09/21 04:17:39;;;;;;;11.13;10.83;;;17.30;99.90;;;;;;5083625;28;20496;-67
2023/09/21 04:20:10;;;;;;;10.80;10.60;;;17.30;99.90;;;;;;5080061;28;20502;-68
2023/09/21 04:22:39;;;;;;;10.90;10.70;;;17.30;99.90;;;;;;5079419;28;20819;-67
2023/09/21 04:25:09;;;;;;;11.07;10.77;;;17.30;99.90;;;;;;5087384;28;21135;-68
2023/09/21 04:27:39;;;;;;;11.07;10.77;;;17.30;99.90;;;;;;5074996;28;20490;-68
2023/09/21 04:30:08;;;;;;;11.20;10.90;;;17.30;99.90;;;;;;5077606;28;20728;-67
2023/09/21 04:32:36;;;;;;;11.30;11.00;;;17.30;99.90;;;;;;5075660;28;20985;-67
2023/09/21 04:35:05;;;;;;;11.30;11.00;;;17.30;99.90;;;;;;5090288;28;20450;-68
2023/09/21 04:37:34;;;;;;;11.40;11.10;;;17.30;99.90;;;;;;5090154;28;20482;-67
2023/09/21 04:40:09;;;;;;;11.17;10.87;;;17.30;99.90;;;;;;5090542;28;20944;-68
2023/09/21 04:42:38;;;;;;;11.93;11.63;;;17.30;99.90;;;;;;5065788;28;21039;-68
2023/09/21 04:45:09;;;;;;;11.67;11.37;;;17.30;99.90;;;;;;5082226;28;20544;-68
2023/09/21 04:47:36;;;;;;;11.60;11.30;;;17.30;99.90;;;;;;5085971;28;21075;-68
2023/09/21 04:50:03;;;;;;;11.47;11.17;;;17.30;99.90;;;;;;5082675;28;20466;-68
2023/09/21 04:52:32;;;;;;;11.80;11.50;;;17.30;99.90;;;;;;5085293;28;20520;-66
2023/09/21 04:55:00;;;;;;;11.80;11.50;;;17.30;99.90;;;;;;5074795;28;20517;-68
2023/09/21 04:57:30;;;;;;;11.90;11.60;;;17.40;99.90;;;;;;5089098;28;20996;-67
2023/09/21 04:59:57;;;;;;;11.93;11.63;;;17.40;99.90;;;;;;5077672;28;20472;-67
2023/09/21 05:02:24;;;;;;;11.83;11.53;;;17.40;99.90;;;;;;5074481;28;20977;-67
2023/09/21 05:04:52;;;;;;;11.90;11.60;;;17.40;99.90;;;;;;5085355;28;20449;-67
2023/09/21 05:07:20;;;;;;;11.77;11.47;;;17.40;99.90;;;;;;5090064;28;20845;-68
2023/09/21 05:09:47;;;;;;;11.73;11.43;;;17.40;99.90;;;;;;5089605;28;20940;-67
2023/09/21 05:12:16;;;;;;;11.20;10.90;;;17.40;99.90;;;;;;5070792;28;20897;-68
2023/09/21 05:14:45;;;;;;;11.30;11.00;;;17.40;99.90;;;;;;5084949;28;20821;-67
2023/09/21 05:17:11;;;;;;;11.40;11.10;;;17.40;99.90;;;;;;5084309;28;20496;-67
2023/09/21 05:19:39;;;;;;;11.77;11.47;;;17.40;99.90;;;;;;5081566;28;20458;-67
2023/09/21 05:22:05;;;;;;;11.80;11.50;;;17.50;99.90;;;;;;5082611;28;20482;-67
2023/09/21 05:24:33;;;;;;;12.10;11.80;;;17.50;99.90;;;;;;5070938;28;21136;-68
2023/09/21 05:27:00;;;;;;;11.83;11.53;;;17.50;99.90;;;;;;5086051;28;20550;-67
2023/09/21 05:29:27;;;;;;;12.20;11.90;;;17.50;99.90;;;;;;5089439;28;20485;-68
2023/09/21 05:31:56;;;;;;;11.83;11.53;;;17.50;99.90;;;;;;5089296;28;20531;-68
2023/09/21 05:34:24;;;;;;;11.83;11.53;;;17.60;99.90;;;;;;5073394;28;20813;-68
2023/09/21 05:36:51;;;;;;;12.00;11.70;;;17.60;99.90;;;;;;5074693;28;20467;-68
2023/09/21 05:39:19;;;;;;;11.73;11.43;;;17.60;99.90;;;;;;5075799;28;20455;-67
2023/09/21 05:41:47;;;;;;;11.73;11.43;;;17.70;99.90;;;;;;5079894;28;20470;-67
2023/09/21 05:44:14;;;;;;;11.90;11.60;;;17.70;99.90;;;;;;5081643;28;20470;-66
2023/09/21 05:46:41;;;;;;;11.63;11.33;;;17.80;99.90;;;;;;5080931;28;20473;-67
2023/09/21 05:49:17;;;;;;;12.13;11.83;;;17.90;99.90;;;;;;5073376;28;20459;-68
2023/09/21 05:51:46;;;;;;;12.00;11.70;;;17.90;99.90;;;;;;5083127;28;20454;-68
2023/09/21 05:54:16;;;;;;;12.30;12.00;;;18.00;99.90;;;;;;5083310;28;20518;-67
2023/09/21 05:56:44;;;;;;;12.10;11.80;;;18.10;99.90;;;;;;5075884;28;20562;-68
2023/09/21 05:59:11;;;;;;;12.17;11.87;;;18.10;99.90;;;;;;5077560;28;21255;-67
2023/09/21 06:01:38;;;;;;;12.23;11.93;;;18.10;99.90;;;;;;5079321;28;20457;-67
2023/09/21 06:04:05;;;;;;;12.10;11.80;;;18.10;99.90;;;;;;5081214;28;20477;-67
2023/09/21 06:06:35;;;;;;;12.33;12.03;;;18.20;99.90;;;;;;5077955;28;20545;-67
2023/09/21 06:09:01;;;;;;;12.37;12.07;;;18.30;99.90;;;;;;5068459;28;20476;-67
2023/09/21 06:11:29;;;;;;;12.20;11.90;;;18.30;99.90;;;;;;5077506;28;20468;-67
2023/09/21 06:13:56;;;;;;;12.33;12.03;;;18.40;99.90;;;;;;5080450;28;20558;-67
2023/09/21 06:16:23;;;;;;;12.30;12.00;;;18.50;99.90;;;;;;5069126;28;20988;-67
2023/09/21 06:18:50;;;;;;;12.20;11.90;;;18.60;99.90;;;;;;5078324;28;21024;-68
2023/09/21 06:21:16;;;;;;;12.40;12.10;;;18.60;99.90;;;;;;5075774;28;20505;-67
2023/09/21 06:23:45;;;;;;;12.80;12.40;;;18.70;99.90;;;;;;5077051;28;20470;-68
2023/09/21 06:26:14;;;;;;;12.90;12.50;;;18.80;99.90;;;;;;5072043;28;20467;-68
2023/09/21 06:28:44;;;;;;;12.60;12.23;;;18.80;99.90;;;;;;5073846;28;20485;-68
2023/09/21 06:31:11;;;;;;;12.40;12.10;;;19.00;99.90;;;;;;5089837;28;20506;-67
2023/09/21 06:33:38;;;;;;;12.37;12.07;;;19.00;99.90;;;;;;5083381;28;20478;-68
2023/09/21 06:36:05;;;;;;;12.70;12.30;;;19.10;99.90;;;;;;5077133;28;20819;-68
2023/09/21 06:38:32;;;;;;;12.80;12.40;;;19.00;99.90;;;;;;5069173;28;20497;-67
2023/09/21 06:41:01;;;;;;;12.50;12.20;;;19.10;99.90;;;;;;5080860;28;20513;-67
2023/09/21 06:43:30;;;;;;;12.70;12.30;;;19.20;99.90;;;;;;5072112;28;20816;-66
2023/09/21 06:45:58;;;;;;;12.60;12.20;;;19.30;99.90;;;;;;5074372;28;20458;-67
2023/09/21 06:48:26;;;;;;;12.37;12.07;;;19.40;99.90;;;;;;5071923;28;20881;-67
2023/09/21 06:50:54;;;;;;;12.27;11.97;;;19.50;99.90;;;;;;5079508;28;20470;-67
2023/09/21 06:53:24;;;;;;;12.40;12.10;;;19.50;99.90;;;;;;5079615;28;20477;-67
2023/09/21 06:55:50;;;;;;;12.30;12.00;;;19.60;99.90;;;;;;5074916;28;20489;-68
2023/09/21 06:58:18;;;;;;;12.30;12.00;;;19.90;99.90;;;;;;5076937;28;20479;-69
2023/09/21 07:00:46;;;;;;;12.20;11.90;;;20.10;99.90;;;;;;5086512;28;20473;-67
2023/09/21 07:03:15;;;;;;;12.50;12.20;;;20.10;99.90;;;;;;5088648;28;20458;-67
2023/09/21 07:05:43;;;;;;;12.20;11.90;;;20.10;99.90;;;;;;5082387;28;20474;-68
2023/09/21 07:08:10;;;;;;;12.40;12.10;;;20.10;99.90;;;;;;5076592;28;20454;-67
2023/09/21 07:10:38;;;;;;;12.43;12.13;;;20.10;99.90;;;;;;5080611;28;20457;-68
2023/09/21 07:13:05;;;;;;;12.50;12.20;;;20.10;99.90;;;;;;5080241;28;20468;-67
2023/09/21 07:15:34;;;;;;;12.20;11.90;;;20.10;99.90;;;;;;5084368;28;20881;-67
2023/09/21 07:18:01;;;;;;;12.70;12.30;;;20.20;99.90;;;;;;5084599;28;20491;-68
2023/09/21 07:20:28;;;;;;;12.50;12.20;;;20.30;99.90;;;;;;5085063;28;20816;-68
2023/09/21 07:22:55;;;;;;;12.70;12.30;;;20.30;99.90;;;;;;5072992;28;20877;-68
2023/09/21 07:25:22;;;;;;;12.80;12.40;;;20.40;99.90;;;;;;5080498;28;20469;-67
2023/09/21 07:27:51;;;;;;;12.30;12.00;;;20.60;99.90;;;;;;5060252;28;20559;-68
2023/09/21 07:30:19;;;;;;;12.40;12.10;;;20.90;99.90;;;;;;5077437;28;20466;-67
2023/09/21 07:32:47;;;;;;;12.20;11.90;;;21.00;99.90;;;;;;5087587;28;20968;-68
2023/09/21 07:35:14;;;;;;;12.60;12.20;;;21.10;99.90;;;;;;5075671;28;20469;-67
2023/09/21 07:37:46;;;;;;;12.80;12.40;;;21.30;99.90;;;;;;5077838;28;21052;-69
2023/09/21 07:40:13;;;;;;;12.77;12.37;;;21.40;99.90;;;;;;5074567;28;20561;-67
2023/09/21 07:42:42;;;;;;;12.70;12.30;;;21.40;99.90;;;;;;5074023;28;20472;-68
2023/09/21 07:45:10;;;;;;;13.03;12.63;;;21.30;99.90;;;;;;5077967;28;20626;-67
2023/09/21 07:47:38;;;;;;;13.00;12.60;;;21.40;99.90;;;;;;5075391;28;20470;-67
2023/09/21 07:50:08;;;;;;;12.93;12.53;;;21.50;99.90;;;;;;5081963;28;20975;-68
2023/09/21 07:52:35;;;;;;;13.10;12.70;;;21.50;99.90;;;;;;5080650;28;20497;-67
2023/09/21 07:55:02;;;;;;;13.50;13.10;;;21.70;99.90;;;;;;5080449;28;21027;-66
2023/09/21 07:57:32;;;;;;;13.03;12.63;;;22.00;99.90;;;;;;5083611;28;20442;-68
2023/09/21 07:59:59;;;;;;;13.10;12.70;;;22.00;99.90;;;;;;5083303;28;20465;-67
2023/09/21 08:02:27;;;;;;;13.10;12.70;;;22.10;99.90;;;;;;5077429;28;20965;-68
2023/09/21 08:04:55;;;;;;;13.23;12.83;;;22.30;99.90;;;;;;5077631;28;20477;-68
2023/09/21 08:07:26;;;;;;;13.20;12.80;;;22.50;99.90;;;;;;5080151;28;20455;-68
2023/09/21 08:09:54;;;;;;;12.93;12.53;;;22.70;99.90;;;;;;5075057;28;20458;-68
2023/09/21 08:12:21;;;;;;;12.87;12.47;;;22.60;99.90;;;;;;5079346;28;20458;-68
2023/09/21 08:14:50;;;;;;;13.00;12.60;;;22.70;99.90;;;;;;5082836;28;20447;-67
2023/09/21 08:17:17;;;;;;;13.70;13.30;;;22.80;99.90;;;;;;5081165;28;20471;-67
2023/09/21 08:19:44;;;;;;;13.40;13.00;;;22.90;99.90;;;;;;5083802;28;20498;-68
2023/09/21 08:22:11;;;;;;;13.10;12.70;;;22.90;99.90;;;;;;5080005;28;20458;-68
2023/09/21 08:24:41;;;;;;;13.50;13.10;;;23.00;99.90;;;;;;5075166;28;20470;-68
2023/09/21 08:27:08;;;;;;;13.20;12.80;;;23.10;99.90;;;;;;5077929;28;21042;-67
2023/09/21 08:29:36;;;;;;;13.40;13.00;;;22.80;99.90;;;;;;5073268;28;20502;-68
2023/09/21 08:32:03;;;;;;;13.60;13.20;;;22.90;99.90;;;;;;5083787;28;20965;-67
2023/09/21 08:34:31;;;;;;;13.27;12.87;;;22.70;99.90;;;;;;5082749;28;20467;-67
2023/09/21 08:36:57;;;;;;;13.10;12.70;;;22.70;99.90;;;;;;5076197;28;20462;-68
2023/09/21 08:39:24;;;;;;;12.90;12.50;;;22.60;99.90;;;;;;5073582;28;20487;-67
2023/09/21 08:41:54;;;;;;;12.83;12.43;;;22.60;99.90;;;;;;5077080;28;20834;-68
2023/09/21 08:44:21;;;;;;;13.10;12.70;;;22.60;99.90;;;;;;5078065;28;20932;-68
2023/09/21 08:46:49;;;;;;;13.00;12.60;;;22.60;99.90;;;;;;5078304;28;20898;-68
2023/09/21 08:49:18;;;;;;;13.10;12.70;;;22.60;99.90;;;;;;5078706;28;20473;-68
2023/09/21 08:51:45;;;;;;;13.03;12.63;;;22.80;99.90;;;;;;5075766;28;20482;-68
2023/09/21 08:54:13;;;;;;;12.90;12.50;;;22.90;99.90;;;;;;5077661;28;20458;-67
2023/09/21 08:56:42;;;;;;;13.70;13.30;;;23.00;99.90;;;;;;5087993;28;20533;-68
2023/09/21 08:59:10;;;;;;;13.10;12.70;;;23.10;99.90;;;;;;5079223;28;20493;-67
2023/09/21 09:01:38;;;;;;;13.33;12.93;;;23.10;99.90;;;;;;5075095;28;20446;-68
2023/09/21 09:04:06;;;;;;;12.90;12.50;;;23.10;99.90;;;;;;5079216;28;20463;-67
2023/09/21 09:06:33;;;;;;;12.60;12.20;;;23.10;99.90;;;;;;5076433;28;20814;-68
2023/09/21 09:09:00;;;;;;;12.60;12.30;;;23.10;99.90;;;;;;5076192;28;20446;-68
2023/09/21 09:11:34;;;;;;;12.80;12.40;;;23.00;99.90;;;;;;5087492;28;20454;-67
2023/09/21 09:14:02;;;;;;;13.07;12.67;;;23.00;99.90;;;;;;5083827;28;20874;-68
2023/09/21 09:16:30;;;;;;;12.90;12.50;;;23.20;99.90;;;;;;5077907;28;20877;-68
2023/09/21 09:19:00;;;;;;;12.90;12.50;;;23.10;99.90;;;;;;5074502;28;20483;-67
2023/09/21 09:21:26;;;;;;;12.73;12.33;;;23.30;99.90;;;;;;5081614;28;20794;-67
2023/09/21 09:23:53;;;;;;;12.93;12.53;;;23.30;99.90;;;;;;5081110;28;20463;-67
2023/09/21 09:26:20;;;;;;;13.17;12.77;;;23.10;99.90;;;;;;5084204;28;20462;-68
2023/09/21 09:28:48;;;;;;;12.80;12.40;;;22.90;99.90;;;;;;5077711;28;20526;-68
2023/09/21 09:31:18;;;;;;;12.80;12.40;;;23.00;99.90;;;;;;5068505;28;20565;-68
2023/09/21 09:33:48;;;;;;;12.87;12.47;;;23.20;99.90;;;;;;5076973;28;20482;-68
2023/09/21 09:36:15;;;;;;;12.40;12.10;;;23.10;99.90;;;;;;5084988;28;20918;-68
2023/09/21 09:38:42;;;;;;;12.60;12.30;;;23.10;99.90;;;;;;5081967;28;20485;-68
2023/09/21 09:41:16;;;;;;;12.93;12.53;;;23.00;99.90;;;;;;5076350;28;20466;-68
2023/09/21 09:43:47;;;;;;;13.00;12.60;;;22.80;99.90;;;;;;5078500;28;20941;-68
2023/09/21 09:46:16;;;;;;;12.90;12.50;;;22.90;99.90;;;;;;5084788;28;20978;-67
2023/09/21 09:48:43;;;;;;;12.40;12.10;;;22.90;99.90;;;;;;5074770;28;20553;-67
2023/09/21 09:51:20;;;;;;;12.10;11.80;;;23.00;99.90;;;;;;5077350;28;20462;-68
2023/09/21 09:53:52;;;;;;;12.30;12.00;;;23.10;99.90;;;;;;5080678;28;20944;-69
2023/09/21 09:56:22;;;;;;;12.37;12.07;;;23.20;99.90;;;;;;5077183;28;20980;-68
2023/09/21 09:58:51;;;;;;;12.40;12.10;;;23.10;99.90;;;;;;5082034;28;21098;-67
2023/09/21 10:01:19;;;;;;;12.40;12.10;;;23.20;99.90;;;;;;5072163;28;20463;-67
2023/09/21 10:03:51;;;;;;;12.30;12.00;;;23.20;99.90;;;;;;5077225;28;20464;-67
2023/09/21 10:06:20;;;;;;;12.50;12.20;;;23.30;99.90;;;;;;5074534;28;20488;-68
2023/09/21 10:08:49;;;;;;;13.00;12.60;;;23.30;99.90;;;;;;5079164;28;20454;-68
2023/09/21 10:11:16;;;;;;;12.90;12.50;;;23.20;99.90;;;;;;5078878;28;20465;-68
2023/09/21 10:13:51;;;;;;;12.60;12.30;;;23.50;99.90;;;;;;5074012;28;20461;-68
2023/09/21 10:16:20;;;;;;;12.83;12.47;;;23.60;99.90;;;;;;5077142;28;20507;-67
2023/09/21 10:18:53;;;;;;;12.60;12.30;;;23.40;99.90;;;;;;5062671;28;20905;-68
2023/09/21 10:21:31;;;;;;;12.50;12.20;;;23.40;99.90;;;;;;5076852;28;20458;-68
2023/09/21 10:24:06;;;;;;;12.63;12.33;;;23.60;99.90;;;;;;5068133;28;20511;-68
2023/09/21 10:26:38;;;;;;;12.77;12.40;;;23.50;99.90;;;;;;5070868;28;20513;-69
2023/09/21 10:29:07;;;;;;;12.90;12.50;;;23.60;99.90;;;;;;5090098;28;20501;-68
2023/09/21 10:31:34;;;;;;;13.03;12.63;;;23.70;99.90;;;;;;5087247;28;20780;-68
2023/09/21 10:34:21;;;;;;;13.10;12.70;;;23.90;99.90;;;;;;5087207;28;20486;-68
2023/09/21 10:36:56;;;;;;;12.50;12.20;;;23.90;99.90;;;;;;5082075;28;20461;-68
2023/09/21 10:39:24;;;;;;;12.50;12.20;;;24.10;99.90;;;;;;5074490;28;20490;-68
2023/09/21 10:41:52;;;;;;;12.90;12.50;;;24.20;99.90;;;;;;5069617;28;20786;-68
2023/09/21 10:45:04;;;;;;;13.40;13.00;;;24.20;99.90;;;;;;5086750;28;20962;-68
2023/09/21 10:47:35;;;;;;;12.83;12.43;;;24.20;99.90;;;;;;5078238;28;20455;-68
2023/09/21 10:50:06;;;;;;;13.13;12.73;;;24.30;99.90;;;;;;5084125;28;20506;-68
2023/09/21 10:52:34;;;;;;;13.13;12.73;;;24.00;99.90;;;;;;5088876;28;20453;-68
2023/09/21 10:55:02;;;;;;;12.57;12.27;;;23.90;99.90;;;;;;5088722;28;20474;-68
2023/09/21 10:57:32;;;;;;;13.03;12.63;;;23.70;99.90;;;;;;5077639;28;20463;-68
2023/09/21 11:00:00;;;;;;;12.87;12.47;;;23.40;99.90;;;;;;5081569;28;20767;-68
2023/09/21 11:02:31;;;;;;;12.50;12.20;;;23.60;99.90;;;;;;5091119;28;20488;-68
2023/09/21 11:05:00;;;;;;;12.50;12.20;;;23.60;99.90;;;;;;5092071;28;20461;-68
2023/09/21 11:07:29;;;;;;;13.50;13.10;;;23.30;99.90;;;;;;5079546;28;20469;-68
2023/09/21 11:09:57;;;;;;;12.30;12.00;;;23.20;99.90;;;;;;5088267;28;20450;-67
2023/09/21 11:12:24;;;;;;;12.60;12.30;;;23.20;99.90;;;;;;5097094;28;20445;-67
2023/09/21 11:14:51;;;;;;;12.20;11.90;;;23.40;99.90;;;;;;5084614;28;20584;-66
2023/09/21 11:17:18;;;;;;;12.40;12.10;;;23.20;99.90;;;;;;5085123;28;20476;-66
2023/09/21 11:19:47;;;;;;;12.93;12.53;;;23.30;99.90;;;;;;5079970;28;21453;-66
2023/09/21 11:22:14;;;;;;;13.00;12.60;;;23.30;99.90;;;;;;5086736;28;20946;-66
2023/09/21 11:24:42;;;;;;;12.87;12.47;;;23.40;99.90;;;;;;5083392;28;20443;-66
2023/09/21 11:27:11;;;;;;;13.00;12.60;;;23.60;99.90;;;;;;5080960;28;20473;-66
2023/09/21 11:29:40;;;;;;;12.90;12.50;;;23.70;99.90;;;;;;5081316;28;20473;-69
2023/09/21 11:32:09;;;;;;;12.43;12.13;;;23.70;99.90;;;;;;5072627;28;20464;-68
2023/09/21 11:34:39;;;;;;;12.70;12.40;;;23.90;99.90;;;;;;5091518;28;20525;-68
2023/09/21 11:37:07;;;;;;;12.90;12.50;;;23.80;99.90;;;;;;5078513;28;20464;-68
2023/09/21 11:39:36;;;;;;;12.67;12.33;;;23.90;99.90;;;;;;5075606;28;21015;-66
2023/09/21 11:42:03;;;;;;;12.70;12.40;;;23.80;99.90;;;;;;5085292;28;20967;-66
2023/09/21 11:44:31;;;;;;;12.70;12.40;;;23.60;99.90;;;;;;5078670;28;20569;-67
2023/09/21 11:47:01;;;;;;;12.37;12.07;;;23.50;99.90;;;;;;5080987;28;20828;-66
2023/09/21 11:49:42;;;;;;;12.97;12.57;;;23.50;99.90;;;;;;5087042;28;20461;-66
2023/09/21 11:52:10;;;;;;;12.73;12.43;;;23.50;99.90;;;;;;5088409;28;20461;-68
2023/09/21 11:54:38;;;;;;;13.00;12.60;;;23.50;99.90;;;;;;5089623;28;20588;-68
2023/09/21 11:57:06;;;;;;;12.30;12.00;;;23.60;99.90;;;;;;5069632;28;20934;-68
2023/09/21 11:59:36;;;;;;;12.53;12.23;;;23.60;99.90;;;;;;5078201;28;20482;-68
2023/09/21 12:02:09;;;;;;;12.30;12.00;;;23.50;99.90;;;;;;5067703;28;20462;-66
2023/09/21 12:04:37;;;;;;;12.77;12.47;;;23.60;99.90;;;;;;5078194;28;20835;-65
2023/09/21 12:07:05;;;;;;;12.50;12.20;;;23.40;99.90;;;;;;5076211;28;20463;-66
2023/09/21 12:09:36;;;;;;;12.50;12.20;;;23.20;99.90;;;;;;5073783;28;20533;-66
2023/09/21 12:12:04;;;;;;;12.20;11.90;;;23.30;99.90;;;;;;5083521;28;20454;-67
2023/09/21 12:14:30;;;;;;;12.20;11.90;;;23.30;99.90;;;;;;5078485;28;20456;-66
2023/09/21 12:17:02;;;;;;;12.67;12.37;;;23.40;99.90;;;;;;5075269;28;20462;-66
2023/09/21 12:19:30;;;;;;;12.17;11.87;;;23.40;99.90;;;;;;5073896;28;20487;-66
2023/09/21 12:21:59;;;;;;;11.90;11.60;;;23.50;99.90;;;;;;5078319;28;20469;-67
2023/09/21 12:24:26;;;;;;;12.00;11.70;;;23.50;99.90;;;;;;5077925;28;20457;-66
2023/09/21 12:26:55;;;;;;;11.97;11.67;;;23.60;99.90;;;;;;5080047;28;20550;-66
2023/09/21 12:29:22;;;;;;;12.07;11.77;;;23.60;99.90;;;;;;5069415;28;20533;-65
2023/09/21 12:31:50;;;;;;;14.27;13.80;;;23.70;99.90;;;;;;5057916;28;20928;-66
2023/09/21 12:34:19;;;;;;;25.93;24.03;;;23.50;99.90;;;;;;5062345;28;21021;-67
2023/09/21 12:36:48;;;;;;;25.53;23.53;;;22.80;99.90;;;;;;5058547;28;21383;-65